sensor_id;sensor_type;location;lat;lon;timestamp;P1;durP1;ratioP1;P2;durP2;ratioP2
47960;SDS011;33721;48.852;9.936;2023-08-06T00:00:06;7.60;;;4.95;;
47960;SDS011;33721;48.852;9.936;2023-08-06T00:02:33;7.68;;;5.15;;
47960;SDS011;33721;48.852;9.936;2023-08-06T00:04:59;7.97;;;5.32;;
47960;SDS011;33721;48.852;9.936;2023-08-06T00:07:24;9.82;;;6.10;;
47960;SDS011;33721;48.852;9.936;2023-08-06T00:09:50;11.02;;;5.63;;
47960;SDS011;33721;48.852;9.936;2023-08-06T00:12:15;9.30;;;5.88;;
47960;SDS011;33721;48.852;9.936;2023-08-06T00:14:41;10.50;;;6.68;;
47960;SDS011;33721;48.852;9.936;2023-08-06T00:17:07;17.00;;;6.88;;
47960;SDS011;33721;48.852;9.936;2023-08-06T00:19:33;11.68;;;6.57;;
47960;SDS011;33721;48.852;9.936;2023-08-06T00:21:58;11.23;;;6.63;;
47960;SDS011;33721;48.852;9.936;2023-08-06T00:24:24;13.40;;;6.75;;
47960;SDS011;33721;48.852;9.936;2023-08-06T00:26:50;12.55;;;6.57;;
47960;SDS011;33721;48.852;9.936;2023-08-06T00:29:15;11.70;;;6.80;;
47960;SDS011;33721;48.852;9.936;2023-08-06T00:31:41;11.32;;;6.95;;
47960;SDS011;33721;48.852;9.936;2023-08-06T00:34:06;14.52;;;6.90;;
47960;SDS011;33721;48.852;9.936;2023-08-06T00:36:32;10.02;;;6.53;;
47960;SDS011;33721;48.852;9.936;2023-08-06T00:38:58;11.27;;;6.85;;
47960;SDS011;33721;48.852;9.936;2023-08-06T00:41:23;10.32;;;6.88;;
47960;SDS011;33721;48.852;9.936;2023-08-06T00:43:49;10.43;;;6.20;;
47960;SDS011;33721;48.852;9.936;2023-08-06T00:46:14;10.30;;;6.40;;
47960;SDS011;33721;48.852;9.936;2023-08-06T00:48:40;13.02;;;6.70;;
47960;SDS011;33721;48.852;9.936;2023-08-06T00:51:08;9.63;;;6.38;;
47960;SDS011;33721;48.852;9.936;2023-08-06T00:53:37;9.77;;;6.53;;
47960;SDS011;33721;48.852;9.936;2023-08-06T00:56:04;9.48;;;6.15;;
47960;SDS011;33721;48.852;9.936;2023-08-06T00:58:31;8.13;;;5.95;;
47960;SDS011;33721;48.852;9.936;2023-08-06T01:00:57;10.38;;;6.25;;
47960;SDS011;33721;48.852;9.936;2023-08-06T01:03:23;9.57;;;6.25;;
47960;SDS011;33721;48.852;9.936;2023-08-06T01:05:48;10.82;;;6.18;;
47960;SDS011;33721;48.852;9.936;2023-08-06T01:08:31;10.95;;;6.20;;
47960;SDS011;33721;48.852;9.936;2023-08-06T01:14:02;10.07;;;5.82;;
47960;SDS011;33721;48.852;9.936;2023-08-06T01:16:35;10.45;;;6.10;;
47960;SDS011;33721;48.852;9.936;2023-08-06T01:19:02;11.95;;;6.13;;
47960;SDS011;33721;48.852;9.936;2023-08-06T01:21:27;8.02;;;6.13;;
47960;SDS011;33721;48.852;9.936;2023-08-06T01:23:53;12.73;;;5.78;;
47960;SDS011;33721;48.852;9.936;2023-08-06T01:26:39;9.20;;;6.03;;
47960;SDS011;33721;48.852;9.936;2023-08-06T01:29:44;10.77;;;6.53;;
47960;SDS011;33721;48.852;9.936;2023-08-06T01:32:33;17.90;;;5.85;;
47960;SDS011;33721;48.852;9.936;2023-08-06T01:35:00;48.15;;;6.32;;
47960;SDS011;33721;48.852;9.936;2023-08-06T01:37:28;51.42;;;7.90;;
47960;SDS011;33721;48.852;9.936;2023-08-06T01:39:54;35.92;;;6.25;;
47960;SDS011;33721;48.852;9.936;2023-08-06T01:42:20;20.50;;;6.80;;
47960;SDS011;33721;48.852;9.936;2023-08-06T01:44:46;23.65;;;6.63;;
47960;SDS011;33721;48.852;9.936;2023-08-06T01:47:11;10.32;;;6.30;;
47960;SDS011;33721;48.852;9.936;2023-08-06T01:49:37;9.13;;;5.75;;
47960;SDS011;33721;48.852;9.936;2023-08-06T01:52:03;17.83;;;7.07;;
47960;SDS011;33721;48.852;9.936;2023-08-06T01:54:29;11.75;;;6.32;;
47960;SDS011;33721;48.852;9.936;2023-08-06T01:56:54;14.80;;;7.00;;
47960;SDS011;33721;48.852;9.936;2023-08-06T01:59:20;10.18;;;6.90;;
47960;SDS011;33721;48.852;9.936;2023-08-06T02:01:46;9.48;;;6.38;;
47960;SDS011;33721;48.852;9.936;2023-08-06T02:04:11;9.88;;;6.65;;
47960;SDS011;33721;48.852;9.936;2023-08-06T02:06:37;13.93;;;7.78;;
47960;SDS011;33721;48.852;9.936;2023-08-06T02:09:02;13.18;;;6.82;;
47960;SDS011;33721;48.852;9.936;2023-08-06T02:11:28;10.68;;;6.40;;
47960;SDS011;33721;48.852;9.936;2023-08-06T02:13:54;10.90;;;6.53;;
47960;SDS011;33721;48.852;9.936;2023-08-06T02:16:19;11.07;;;6.78;;
47960;SDS011;33721;48.852;9.936;2023-08-06T02:18:45;10.45;;;6.40;;
47960;SDS011;33721;48.852;9.936;2023-08-06T02:21:10;12.43;;;6.93;;
47960;SDS011;33721;48.852;9.936;2023-08-06T02:23:36;11.77;;;6.78;;
47960;SDS011;33721;48.852;9.936;2023-08-06T02:26:02;11.32;;;7.53;;
47960;SDS011;33721;48.852;9.936;2023-08-06T02:28:29;13.43;;;7.20;;
47960;SDS011;33721;48.852;9.936;2023-08-06T02:30:55;12.60;;;7.57;;
47960;SDS011;33721;48.852;9.936;2023-08-06T02:33:21;13.18;;;7.30;;
47960;SDS011;33721;48.852;9.936;2023-08-06T02:35:47;11.48;;;7.60;;
47960;SDS011;33721;48.852;9.936;2023-08-06T02:38:12;13.65;;;7.28;;
47960;SDS011;33721;48.852;9.936;2023-08-06T02:40:44;10.40;;;6.65;;
47960;SDS011;33721;48.852;9.936;2023-08-06T02:43:11;9.40;;;5.45;;
47960;SDS011;33721;48.852;9.936;2023-08-06T02:45:37;11.02;;;6.95;;
47960;SDS011;33721;48.852;9.936;2023-08-06T02:48:02;9.75;;;5.78;;
47960;SDS011;33721;48.852;9.936;2023-08-06T02:50:28;11.13;;;6.13;;
47960;SDS011;33721;48.852;9.936;2023-08-06T02:52:54;10.25;;;6.03;;
47960;SDS011;33721;48.852;9.936;2023-08-06T02:55:20;9.73;;;6.00;;
47960;SDS011;33721;48.852;9.936;2023-08-06T02:57:46;9.85;;;5.57;;
47960;SDS011;33721;48.852;9.936;2023-08-06T03:00:12;9.50;;;5.63;;
47960;SDS011;33721;48.852;9.936;2023-08-06T03:02:38;11.50;;;5.80;;
47960;SDS011;33721;48.852;9.936;2023-08-06T03:05:03;8.25;;;5.80;;
47960;SDS011;33721;48.852;9.936;2023-08-06T03:07:31;9.10;;;5.70;;
47960;SDS011;33721;48.852;9.936;2023-08-06T03:09:58;8.68;;;5.80;;
47960;SDS011;33721;48.852;9.936;2023-08-06T03:12:25;10.80;;;5.82;;
47960;SDS011;33721;48.852;9.936;2023-08-06T03:14:51;12.02;;;5.72;;
47960;SDS011;33721;48.852;9.936;2023-08-06T03:17:17;8.88;;;5.75;;
47960;SDS011;33721;48.852;9.936;2023-08-06T03:19:42;9.15;;;5.72;;
47960;SDS011;33721;48.852;9.936;2023-08-06T03:22:08;8.65;;;5.50;;
47960;SDS011;33721;48.852;9.936;2023-08-06T03:24:33;13.38;;;6.05;;
47960;SDS011;33721;48.852;9.936;2023-08-06T03:26:59;8.48;;;4.80;;
47960;SDS011;33721;48.852;9.936;2023-08-06T03:29:25;12.70;;;5.38;;
47960;SDS011;33721;48.852;9.936;2023-08-06T03:31:51;8.07;;;5.43;;
47960;SDS011;33721;48.852;9.936;2023-08-06T03:34:17;9.60;;;5.57;;
47960;SDS011;33721;48.852;9.936;2023-08-06T03:36:43;11.73;;;5.57;;
47960;SDS011;33721;48.852;9.936;2023-08-06T03:39:08;8.63;;;5.15;;
47960;SDS011;33721;48.852;9.936;2023-08-06T03:41:34;10.13;;;4.80;;
47960;SDS011;33721;48.852;9.936;2023-08-06T03:43:59;7.50;;;5.30;;
47960;SDS011;33721;48.852;9.936;2023-08-06T03:46:27;7.47;;;5.28;;
47960;SDS011;33721;48.852;9.936;2023-08-06T03:48:53;9.15;;;5.50;;
47960;SDS011;33721;48.852;9.936;2023-08-06T03:51:19;7.43;;;5.28;;
47960;SDS011;33721;48.852;9.936;2023-08-06T03:53:44;11.90;;;5.10;;
47960;SDS011;33721;48.852;9.936;2023-08-06T03:56:10;7.53;;;4.40;;
47960;SDS011;33721;48.852;9.936;2023-08-06T03:58:35;11.82;;;4.70;;
47960;SDS011;33721;48.852;9.936;2023-08-06T04:01:01;9.38;;;4.63;;
47960;SDS011;33721;48.852;9.936;2023-08-06T04:03:28;9.93;;;4.65;;
47960;SDS011;33721;48.852;9.936;2023-08-06T04:05:54;8.82;;;4.80;;
47960;SDS011;33721;48.852;9.936;2023-08-06T04:08:20;9.73;;;4.95;;
47960;SDS011;33721;48.852;9.936;2023-08-06T04:10:48;9.25;;;4.60;;
47960;SDS011;33721;48.852;9.936;2023-08-06T04:13:14;8.32;;;4.45;;
47960;SDS011;33721;48.852;9.936;2023-08-06T04:15:40;7.85;;;4.53;;
47960;SDS011;33721;48.852;9.936;2023-08-06T04:18:06;11.20;;;4.88;;
47960;SDS011;33721;48.852;9.936;2023-08-06T04:20:31;6.97;;;4.60;;
47960;SDS011;33721;48.852;9.936;2023-08-06T04:22:57;9.15;;;4.45;;
47960;SDS011;33721;48.852;9.936;2023-08-06T04:25:22;9.32;;;4.47;;
47960;SDS011;33721;48.852;9.936;2023-08-06T04:27:48;8.52;;;4.20;;
47960;SDS011;33721;48.852;9.936;2023-08-06T04:30:14;6.95;;;4.38;;
47960;SDS011;33721;48.852;9.936;2023-08-06T04:32:40;7.28;;;3.75;;
47960;SDS011;33721;48.852;9.936;2023-08-06T04:35:06;6.68;;;3.80;;
47960;SDS011;33721;48.852;9.936;2023-08-06T04:37:32;5.97;;;3.63;;
47960;SDS011;33721;48.852;9.936;2023-08-06T04:39:57;7.00;;;3.83;;
47960;SDS011;33721;48.852;9.936;2023-08-06T04:42:23;7.65;;;3.72;;
47960;SDS011;33721;48.852;9.936;2023-08-06T04:44:49;7.95;;;3.95;;
47960;SDS011;33721;48.852;9.936;2023-08-06T04:47:15;5.53;;;3.17;;
47960;SDS011;33721;48.852;9.936;2023-08-06T04:49:40;6.40;;;3.30;;
47960;SDS011;33721;48.852;9.936;2023-08-06T04:52:06;9.50;;;4.00;;
47960;SDS011;33721;48.852;9.936;2023-08-06T04:54:32;7.07;;;3.55;;
47960;SDS011;33721;48.852;9.936;2023-08-06T04:56:58;9.23;;;3.55;;
47960;SDS011;33721;48.852;9.936;2023-08-06T04:59:24;7.50;;;3.15;;
47960;SDS011;33721;48.852;9.936;2023-08-06T05:01:50;9.27;;;3.45;;
47960;SDS011;33721;48.852;9.936;2023-08-06T05:04:15;8.93;;;3.40;;
47960;SDS011;33721;48.852;9.936;2023-08-06T05:06:41;6.03;;;2.92;;
47960;SDS011;33721;48.852;9.936;2023-08-06T05:09:06;6.68;;;3.08;;
47960;SDS011;33721;48.852;9.936;2023-08-06T05:11:32;7.97;;;3.70;;
47960;SDS011;33721;48.852;9.936;2023-08-06T05:13:58;6.50;;;3.05;;
47960;SDS011;33721;48.852;9.936;2023-08-06T05:16:23;7.43;;;3.35;;
47960;SDS011;33721;48.852;9.936;2023-08-06T05:18:49;4.18;;;2.30;;
47960;SDS011;33721;48.852;9.936;2023-08-06T05:21:15;7.90;;;2.60;;
47960;SDS011;33721;48.852;9.936;2023-08-06T05:23:41;7.68;;;2.55;;
47960;SDS011;33721;48.852;9.936;2023-08-06T05:26:07;6.53;;;2.63;;
47960;SDS011;33721;48.852;9.936;2023-08-06T05:28:33;7.30;;;2.83;;
47960;SDS011;33721;48.852;9.936;2023-08-06T05:31:02;7.75;;;2.80;;
47960;SDS011;33721;48.852;9.936;2023-08-06T05:33:29;5.82;;;3.00;;
47960;SDS011;33721;48.852;9.936;2023-08-06T05:35:55;7.82;;;3.42;;
47960;SDS011;33721;48.852;9.936;2023-08-06T05:38:20;5.35;;;2.58;;
47960;SDS011;33721;48.852;9.936;2023-08-06T05:40:46;7.57;;;2.60;;
47960;SDS011;33721;48.852;9.936;2023-08-06T05:43:12;5.25;;;2.47;;
47960;SDS011;33721;48.852;9.936;2023-08-06T05:45:38;6.90;;;1.90;;
47960;SDS011;33721;48.852;9.936;2023-08-06T05:48:03;5.72;;;2.10;;
47960;SDS011;33721;48.852;9.936;2023-08-06T05:50:29;4.10;;;2.00;;
47960;SDS011;33721;48.852;9.936;2023-08-06T05:52:55;3.83;;;1.95;;
47960;SDS011;33721;48.852;9.936;2023-08-06T05:55:20;5.68;;;2.10;;
47960;SDS011;33721;48.852;9.936;2023-08-06T05:57:46;5.75;;;2.03;;
47960;SDS011;33721;48.852;9.936;2023-08-06T06:00:12;4.63;;;1.70;;
47960;SDS011;33721;48.852;9.936;2023-08-06T06:02:38;7.78;;;1.98;;
47960;SDS011;33721;48.852;9.936;2023-08-06T06:05:03;6.40;;;1.90;;
47960;SDS011;33721;48.852;9.936;2023-08-06T06:07:29;9.52;;;2.17;;
47960;SDS011;33721;48.852;9.936;2023-08-06T06:09:55;6.28;;;1.92;;
47960;SDS011;33721;48.852;9.936;2023-08-06T06:12:21;3.95;;;1.90;;
47960;SDS011;33721;48.852;9.936;2023-08-06T06:14:47;6.28;;;2.38;;
47960;SDS011;33721;48.852;9.936;2023-08-06T06:17:13;6.05;;;2.03;;
47960;SDS011;33721;48.852;9.936;2023-08-06T06:19:38;5.97;;;2.08;;
47960;SDS011;33721;48.852;9.936;2023-08-06T06:22:04;5.70;;;2.05;;
47960;SDS011;33721;48.852;9.936;2023-08-06T06:24:30;6.13;;;2.28;;
47960;SDS011;33721;48.852;9.936;2023-08-06T06:26:56;8.40;;;2.22;;
47960;SDS011;33721;48.852;9.936;2023-08-06T06:29:21;5.65;;;2.30;;
47960;SDS011;33721;48.852;9.936;2023-08-06T06:31:47;5.60;;;1.80;;
47960;SDS011;33721;48.852;9.936;2023-08-06T06:34:13;3.92;;;1.83;;
47960;SDS011;33721;48.852;9.936;2023-08-06T06:36:38;5.85;;;2.05;;
47960;SDS011;33721;48.852;9.936;2023-08-06T06:39:04;5.03;;;2.08;;
47960;SDS011;33721;48.852;9.936;2023-08-06T06:41:30;3.78;;;1.70;;
47960;SDS011;33721;48.852;9.936;2023-08-06T06:43:57;6.40;;;2.05;;
47960;SDS011;33721;48.852;9.936;2023-08-06T06:46:23;3.70;;;1.50;;
47960;SDS011;33721;48.852;9.936;2023-08-06T06:48:49;3.17;;;1.67;;
47960;SDS011;33721;48.852;9.936;2023-08-06T06:51:14;3.75;;;2.10;;
47960;SDS011;33721;48.852;9.936;2023-08-06T06:53:40;5.85;;;1.58;;
47960;SDS011;33721;48.852;9.936;2023-08-06T06:56:06;5.60;;;2.15;;
47960;SDS011;33721;48.852;9.936;2023-08-06T06:58:32;4.72;;;1.52;;
47960;SDS011;33721;48.852;9.936;2023-08-06T07:00:57;3.58;;;1.20;;
47960;SDS011;33721;48.852;9.936;2023-08-06T07:03:23;6.70;;;1.67;;
47960;SDS011;33721;48.852;9.936;2023-08-06T07:05:49;4.70;;;1.63;;
47960;SDS011;33721;48.852;9.936;2023-08-06T07:08:15;4.38;;;1.25;;
47960;SDS011;33721;48.852;9.936;2023-08-06T07:10:41;5.25;;;1.10;;
47960;SDS011;33721;48.852;9.936;2023-08-06T07:13:07;4.47;;;1.10;;
47960;SDS011;33721;48.852;9.936;2023-08-06T07:15:36;2.70;;;1.00;;
47960;SDS011;33721;48.852;9.936;2023-08-06T07:18:02;5.35;;;1.10;;
47960;SDS011;33721;48.852;9.936;2023-08-06T07:20:28;6.70;;;1.38;;
47960;SDS011;33721;48.852;9.936;2023-08-06T07:22:58;3.97;;;1.40;;
47960;SDS011;33721;48.852;9.936;2023-08-06T07:25:24;4.35;;;0.95;;
47960;SDS011;33721;48.852;9.936;2023-08-06T07:27:49;6.18;;;1.73;;
47960;SDS011;33721;48.852;9.936;2023-08-06T07:30:15;6.82;;;1.10;;
47960;SDS011;33721;48.852;9.936;2023-08-06T07:32:41;7.47;;;1.35;;
47960;SDS011;33721;48.852;9.936;2023-08-06T07:35:06;4.00;;;1.27;;
47960;SDS011;33721;48.852;9.936;2023-08-06T07:37:34;3.92;;;1.83;;
47960;SDS011;33721;48.852;9.936;2023-08-06T07:40:00;4.00;;;1.70;;
47960;SDS011;33721;48.852;9.936;2023-08-06T07:42:25;2.53;;;1.15;;
47960;SDS011;33721;48.852;9.936;2023-08-06T07:44:52;5.38;;;1.73;;
47960;SDS011;33721;48.852;9.936;2023-08-06T07:47:18;3.33;;;1.40;;
47960;SDS011;33721;48.852;9.936;2023-08-06T07:49:44;5.43;;;1.00;;
47960;SDS011;33721;48.852;9.936;2023-08-06T07:52:10;4.55;;;1.10;;
47960;SDS011;33721;48.852;9.936;2023-08-06T07:54:36;5.78;;;0.98;;
47960;SDS011;33721;48.852;9.936;2023-08-06T07:57:02;3.03;;;1.00;;
47960;SDS011;33721;48.852;9.936;2023-08-06T07:59:27;2.78;;;0.95;;
47960;SDS011;33721;48.852;9.936;2023-08-06T08:01:53;3.92;;;1.45;;
47960;SDS011;33721;48.852;9.936;2023-08-06T08:04:18;4.35;;;1.00;;
47960;SDS011;33721;48.852;9.936;2023-08-06T08:06:45;1.88;;;0.98;;
47960;SDS011;33721;48.852;9.936;2023-08-06T08:09:12;2.40;;;0.95;;
47960;SDS011;33721;48.852;9.936;2023-08-06T08:11:38;1.60;;;0.52;;
47960;SDS011;33721;48.852;9.936;2023-08-06T08:14:04;3.50;;;0.85;;
47960;SDS011;33721;48.852;9.936;2023-08-06T08:16:30;1.38;;;0.50;;
47960;SDS011;33721;48.852;9.936;2023-08-06T08:18:56;0.60;;;0.40;;
47960;SDS011;33721;48.852;9.936;2023-08-06T08:21:21;0.95;;;0.30;;
47960;SDS011;33721;48.852;9.936;2023-08-06T08:23:49;2.00;;;0.43;;
47960;SDS011;33721;48.852;9.936;2023-08-06T08:26:15;2.80;;;0.40;;
47960;SDS011;33721;48.852;9.936;2023-08-06T08:28:40;1.45;;;0.65;;
47960;SDS011;33721;48.852;9.936;2023-08-06T08:31:10;1.88;;;0.30;;
47960;SDS011;33721;48.852;9.936;2023-08-06T08:33:39;0.97;;;0.40;;
47960;SDS011;33721;48.852;9.936;2023-08-06T08:36:04;2.97;;;0.35;;
47960;SDS011;33721;48.852;9.936;2023-08-06T08:38:30;2.25;;;0.30;;
47960;SDS011;33721;48.852;9.936;2023-08-06T08:40:56;3.50;;;0.20;;
47960;SDS011;33721;48.852;9.936;2023-08-06T08:43:21;0.93;;;0.40;;
47960;SDS011;33721;48.852;9.936;2023-08-06T08:45:49;0.68;;;0.30;;
47960;SDS011;33721;48.852;9.936;2023-08-06T08:48:16;0.82;;;0.38;;
47960;SDS011;33721;48.852;9.936;2023-08-06T08:50:46;0.85;;;0.40;;
47960;SDS011;33721;48.852;9.936;2023-08-06T08:55:40;0.63;;;0.40;;
47960;SDS011;33721;48.852;9.936;2023-08-06T08:58:07;2.10;;;0.70;;
47960;SDS011;33721;48.852;9.936;2023-08-06T09:00:33;2.35;;;0.47;;
47960;SDS011;33721;48.852;9.936;2023-08-06T09:03:00;0.60;;;0.22;;
47960;SDS011;33721;48.852;9.936;2023-08-06T09:05:28;2.15;;;0.30;;
47960;SDS011;33721;48.852;9.936;2023-08-06T09:07:56;2.25;;;0.50;;
47960;SDS011;33721;48.852;9.936;2023-08-06T09:10:27;1.95;;;0.30;;
47960;SDS011;33721;48.852;9.936;2023-08-06T09:12:53;0.70;;;0.30;;
47960;SDS011;33721;48.852;9.936;2023-08-06T09:15:24;1.70;;;0.30;;
47960;SDS011;33721;48.852;9.936;2023-08-06T09:17:51;1.17;;;0.30;;
47960;SDS011;33721;48.852;9.936;2023-08-06T09:20:18;3.20;;;0.20;;
47960;SDS011;33721;48.852;9.936;2023-08-06T09:22:44;1.02;;;0.28;;
47960;SDS011;33721;48.852;9.936;2023-08-06T09:25:10;1.10;;;0.30;;
47960;SDS011;33721;48.852;9.936;2023-08-06T09:27:38;2.13;;;0.30;;
47960;SDS011;33721;48.852;9.936;2023-08-06T09:30:05;2.60;;;0.32;;
47960;SDS011;33721;48.852;9.936;2023-08-06T09:32:47;0.40;;;0.17;;
47960;SDS011;33721;48.852;9.936;2023-08-06T09:35:19;0.98;;;0.30;;
47960;SDS011;33721;48.852;9.936;2023-08-06T09:37:44;1.08;;;0.25;;
47960;SDS011;33721;48.852;9.936;2023-08-06T09:40:28;0.68;;;0.30;;
47960;SDS011;33721;48.852;9.936;2023-08-06T09:42:55;2.70;;;0.30;;
47960;SDS011;33721;48.852;9.936;2023-08-06T09:45:22;2.38;;;0.20;;
47960;SDS011;33721;48.852;9.936;2023-08-06T09:47:55;0.17;;;0.10;;
47960;SDS011;33721;48.852;9.936;2023-08-06T09:50:21;1.45;;;0.10;;
47960;SDS011;33721;48.852;9.936;2023-08-06T09:52:47;0.55;;;0.15;;
47960;SDS011;33721;48.852;9.936;2023-08-06T09:55:14;0.22;;;0.10;;
47960;SDS011;33721;48.852;9.936;2023-08-06T09:57:40;0.25;;;0.08;;
47960;SDS011;33721;48.852;9.936;2023-08-06T10:00:07;2.20;;;0.10;;
47960;SDS011;33721;48.852;9.936;2023-08-06T10:02:35;0.45;;;0.10;;
47960;SDS011;33721;48.852;9.936;2023-08-06T10:05:04;1.95;;;0.15;;
47960;SDS011;33721;48.852;9.936;2023-08-06T10:07:31;0.52;;;0.10;;
47960;SDS011;33721;48.852;9.936;2023-08-06T10:09:58;0.03;;;0.03;;
47960;SDS011;33721;48.852;9.936;2023-08-06T10:12:24;0.00;;;0.00;;
47960;SDS011;33721;48.852;9.936;2023-08-06T10:14:54;0.35;;;0.10;;
47960;SDS011;33721;48.852;9.936;2023-08-06T10:17:22;0.10;;;0.10;;
47960;SDS011;33721;48.852;9.936;2023-08-06T10:19:48;0.20;;;0.00;;
47960;SDS011;33721;48.852;9.936;2023-08-06T10:22:16;1.75;;;0.10;;
47960;SDS011;33721;48.852;9.936;2023-08-06T10:27:19;0.40;;;0.03;;
47960;SDS011;33721;48.852;9.936;2023-08-06T10:29:45;0.68;;;0.10;;
47960;SDS011;33721;48.852;9.936;2023-08-06T10:32:11;0.52;;;0.10;;
47960;SDS011;33721;48.852;9.936;2023-08-06T10:34:56;0.75;;;0.20;;
47960;SDS011;33721;48.852;9.936;2023-08-06T10:37:35;1.30;;;0.13;;
47960;SDS011;33721;48.852;9.936;2023-08-06T10:40:02;0.63;;;0.20;;
47960;SDS011;33721;48.852;9.936;2023-08-06T10:42:29;0.90;;;0.30;;
47960;SDS011;33721;48.852;9.936;2023-08-06T10:47:59;0.30;;;0.10;;
47960;SDS011;33721;48.852;9.936;2023-08-06T10:50:24;0.73;;;0.10;;
47960;SDS011;33721;48.852;9.936;2023-08-06T10:52:51;0.57;;;0.10;;
47960;SDS011;33721;48.852;9.936;2023-08-06T10:55:27;0.77;;;0.20;;
47960;SDS011;33721;48.852;9.936;2023-08-06T10:57:54;1.20;;;0.20;;
47960;SDS011;33721;48.852;9.936;2023-08-06T11:00:21;0.43;;;0.10;;
47960;SDS011;33721;48.852;9.936;2023-08-06T11:02:48;0.20;;;0.03;;
47960;SDS011;33721;48.852;9.936;2023-08-06T11:05:15;0.00;;;0.00;;
47960;SDS011;33721;48.852;9.936;2023-08-06T11:07:41;1.02;;;0.10;;
47960;SDS011;33721;48.852;9.936;2023-08-06T11:10:08;0.35;;;0.10;;
47960;SDS011;33721;48.852;9.936;2023-08-06T11:12:35;0.20;;;0.15;;
47960;SDS011;33721;48.852;9.936;2023-08-06T11:15:01;1.23;;;0.10;;
47960;SDS011;33721;48.852;9.936;2023-08-06T11:17:28;2.65;;;0.20;;
47960;SDS011;33721;48.852;9.936;2023-08-06T11:19:55;1.25;;;0.20;;
47960;SDS011;33721;48.852;9.936;2023-08-06T11:22:21;0.50;;;0.20;;
47960;SDS011;33721;48.852;9.936;2023-08-06T11:24:47;0.35;;;0.13;;
47960;SDS011;33721;48.852;9.936;2023-08-06T11:27:14;0.50;;;0.10;;
47960;SDS011;33721;48.852;9.936;2023-08-06T11:29:41;0.20;;;0.10;;
47960;SDS011;33721;48.852;9.936;2023-08-06T11:32:08;0.40;;;0.10;;
47960;SDS011;33721;48.852;9.936;2023-08-06T11:34:35;0.10;;;0.00;;
47960;SDS011;33721;48.852;9.936;2023-08-06T11:37:02;0.38;;;0.10;;
47960;SDS011;33721;48.852;9.936;2023-08-06T11:39:30;0.68;;;0.32;;
47960;SDS011;33721;48.852;9.936;2023-08-06T11:41:59;0.17;;;0.10;;
47960;SDS011;33721;48.852;9.936;2023-08-06T11:44:29;0.30;;;0.10;;
47960;SDS011;33721;48.852;9.936;2023-08-06T11:47:02;1.55;;;0.20;;
47960;SDS011;33721;48.852;9.936;2023-08-06T11:49:40;1.67;;;0.30;;
47960;SDS011;33721;48.852;9.936;2023-08-06T11:52:14;1.00;;;0.20;;
47960;SDS011;33721;48.852;9.936;2023-08-06T11:54:40;2.88;;;0.22;;
47960;SDS011;33721;48.852;9.936;2023-08-06T11:57:06;1.50;;;0.28;;
47960;SDS011;33721;48.852;9.936;2023-08-06T11:59:33;1.85;;;0.20;;
47960;SDS011;33721;48.852;9.936;2023-08-06T12:02:02;1.20;;;0.50;;
47960;SDS011;33721;48.852;9.936;2023-08-06T12:04:30;1.80;;;0.50;;
47960;SDS011;33721;48.852;9.936;2023-08-06T12:07:04;0.75;;;0.35;;
47960;SDS011;33721;48.852;9.936;2023-08-06T12:09:32;0.98;;;0.40;;
47960;SDS011;33721;48.852;9.936;2023-08-06T12:11:59;1.75;;;0.40;;
47960;SDS011;33721;48.852;9.936;2023-08-06T12:14:25;1.67;;;0.60;;
47960;SDS011;33721;48.852;9.936;2023-08-06T12:16:50;0.93;;;0.60;;
47960;SDS011;33721;48.852;9.936;2023-08-06T12:19:16;1.38;;;0.80;;
47960;SDS011;33721;48.852;9.936;2023-08-06T12:21:41;1.30;;;0.57;;
47960;SDS011;33721;48.852;9.936;2023-08-06T12:24:07;1.33;;;0.70;;
47960;SDS011;33721;48.852;9.936;2023-08-06T12:26:34;2.03;;;0.60;;
47960;SDS011;33721;48.852;9.936;2023-08-06T12:28:59;1.13;;;0.45;;
47960;SDS011;33721;48.852;9.936;2023-08-06T12:31:25;2.17;;;0.77;;
47960;SDS011;33721;48.852;9.936;2023-08-06T12:33:50;1.48;;;0.60;;
47960;SDS011;33721;48.852;9.936;2023-08-06T12:36:16;1.20;;;0.70;;
47960;SDS011;33721;48.852;9.936;2023-08-06T12:38:42;2.10;;;0.90;;
47960;SDS011;33721;48.852;9.936;2023-08-06T12:41:08;1.90;;;0.80;;
47960;SDS011;33721;48.852;9.936;2023-08-06T12:43:33;1.30;;;0.80;;
47960;SDS011;33721;48.852;9.936;2023-08-06T12:45:59;2.03;;;1.20;;
47960;SDS011;33721;48.852;9.936;2023-08-06T12:48:24;3.05;;;1.08;;
47960;SDS011;33721;48.852;9.936;2023-08-06T12:50:50;3.42;;;1.30;;
47960;SDS011;33721;48.852;9.936;2023-08-06T12:53:16;4.07;;;1.52;;
47960;SDS011;33721;48.852;9.936;2023-08-06T12:55:41;2.20;;;1.33;;
47960;SDS011;33721;48.852;9.936;2023-08-06T12:58:07;3.30;;;1.42;;
47960;SDS011;33721;48.852;9.936;2023-08-06T13:00:33;5.43;;;1.70;;
47960;SDS011;33721;48.852;9.936;2023-08-06T13:02:59;6.28;;;1.70;;
47960;SDS011;33721;48.852;9.936;2023-08-06T13:05:24;3.20;;;2.00;;
47960;SDS011;33721;48.852;9.936;2023-08-06T13:07:50;3.60;;;1.65;;
47960;SDS011;33721;48.852;9.936;2023-08-06T13:10:15;8.20;;;2.13;;
47960;SDS011;33721;48.852;9.936;2023-08-06T13:12:41;3.20;;;1.90;;
47960;SDS011;33721;48.852;9.936;2023-08-06T13:15:08;4.38;;;1.80;;
47960;SDS011;33721;48.852;9.936;2023-08-06T13:17:34;3.83;;;1.70;;
47960;SDS011;33721;48.852;9.936;2023-08-06T13:20:00;3.15;;;2.05;;
47960;SDS011;33721;48.852;9.936;2023-08-06T13:22:26;3.15;;;2.13;;
47960;SDS011;33721;48.852;9.936;2023-08-06T13:24:51;6.13;;;2.47;;
47960;SDS011;33721;48.852;9.936;2023-08-06T13:27:17;2.95;;;1.92;;
47960;SDS011;33721;48.852;9.936;2023-08-06T13:29:42;5.85;;;2.22;;
47960;SDS011;33721;48.852;9.936;2023-08-06T13:32:08;6.35;;;2.13;;
47960;SDS011;33721;48.852;9.936;2023-08-06T13:34:33;5.05;;;2.10;;
47960;SDS011;33721;48.852;9.936;2023-08-06T13:36:59;4.80;;;2.30;;
47960;SDS011;33721;48.852;9.936;2023-08-06T13:39:25;3.60;;;2.10;;
47960;SDS011;33721;48.852;9.936;2023-08-06T13:41:50;5.78;;;2.28;;
47960;SDS011;33721;48.852;9.936;2023-08-06T13:44:16;3.85;;;2.22;;
47960;SDS011;33721;48.852;9.936;2023-08-06T13:46:42;7.10;;;2.50;;
47960;SDS011;33721;48.852;9.936;2023-08-06T13:49:07;4.28;;;2.30;;
47960;SDS011;33721;48.852;9.936;2023-08-06T13:51:33;4.18;;;2.17;;
47960;SDS011;33721;48.852;9.936;2023-08-06T13:54:00;6.22;;;2.28;;
47960;SDS011;33721;48.852;9.936;2023-08-06T13:56:26;6.28;;;2.28;;
47960;SDS011;33721;48.852;9.936;2023-08-06T13:58:52;5.53;;;2.70;;
47960;SDS011;33721;48.852;9.936;2023-08-06T14:01:17;5.30;;;2.45;;
47960;SDS011;33721;48.852;9.936;2023-08-06T14:03:44;5.25;;;2.70;;
47960;SDS011;33721;48.852;9.936;2023-08-06T14:06:10;4.57;;;2.10;;
47960;SDS011;33721;48.852;9.936;2023-08-06T14:08:35;4.68;;;2.40;;
47960;SDS011;33721;48.852;9.936;2023-08-06T14:11:01;4.60;;;2.00;;
47960;SDS011;33721;48.852;9.936;2023-08-06T14:13:27;5.38;;;2.22;;
47960;SDS011;33721;48.852;9.936;2023-08-06T14:15:52;6.95;;;1.95;;
47960;SDS011;33721;48.852;9.936;2023-08-06T14:18:18;3.53;;;2.13;;
47960;SDS011;33721;48.852;9.936;2023-08-06T14:20:44;5.43;;;2.15;;
47960;SDS011;33721;48.852;9.936;2023-08-06T14:23:10;5.43;;;2.00;;
47960;SDS011;33721;48.852;9.936;2023-08-06T14:25:37;4.30;;;2.00;;
47960;SDS011;33721;48.852;9.936;2023-08-06T14:28:04;3.85;;;2.20;;
47960;SDS011;33721;48.852;9.936;2023-08-06T14:30:31;5.65;;;2.50;;
47960;SDS011;33721;48.852;9.936;2023-08-06T14:32:58;4.65;;;2.10;;
47960;SDS011;33721;48.852;9.936;2023-08-06T14:35:25;4.65;;;2.40;;
47960;SDS011;33721;48.852;9.936;2023-08-06T14:37:51;3.40;;;1.90;;
47960;SDS011;33721;48.852;9.936;2023-08-06T14:40:16;4.38;;;1.88;;
47960;SDS011;33721;48.852;9.936;2023-08-06T14:42:42;2.92;;;1.50;;
47960;SDS011;33721;48.852;9.936;2023-08-06T14:45:08;3.22;;;1.55;;
47960;SDS011;33721;48.852;9.936;2023-08-06T14:47:34;3.13;;;1.50;;
47960;SDS011;33721;48.852;9.936;2023-08-06T14:49:59;2.60;;;1.55;;
47960;SDS011;33721;48.852;9.936;2023-08-06T14:52:25;2.92;;;1.45;;